Latest Weather Observations for Ivanhoe Airport

IDN60801

Issued at 8:03 pm EST Tuesday 26 July 2016 (issued every 30 minutes, with the page automatically refreshed every 10 minutes)

About weather observations | Map of weather stations | Latest weather observations for NSW | Other Formats
Station Details ID: 049000 Name: IVANHOE AERODROME AWS Lat: -32.88 Lon: 144.31 Height: 100.0 m
Data from the previous 72 hours. | See also: Recent months at Ivanhoe Airport
Date/Time
EST
Temp
°C
App
Temp
°C
Dew
Point
°C
Rel
Hum
%
Delta-T
°C
Wind Press
QNH
hPa
Press
MSL
hPa
Rain since
9am
mm
Dir  Spd
km/h
Gust
km/h
Spd
kts
Gust
kts
26/08:00pm 11.2 7.8 7.7 79 1.7 N 15 24 8 13 1014.4 1014.5 0.0
26/07:30pm 10.4 7.8 7.6 83 1.3 N 11 13 6 7 1014.6 1014.7 0.0
26/07:00pm 11.3 9.6 7.4 77 1.9 NNW 6 9 3 5 1014.7 1014.8 0.0
26/06:30pm 11.4 9.1 7.3 76 2.0 NNW 9 11 5 6 1014.7 1014.8 0.0
26/06:00pm 11.3 8.8 6.4 72 2.3 NNW 9 13 5 7 1014.4 1014.5 0.0
26/05:30pm 12.3 9.4 6.6 68 2.7 NNW 11 15 6 8 1014.4 1014.5 0.0
26/05:00pm 13.4 10.1 6.5 63 3.3 NNW 13 20 7 11 1014.5 1014.6 0.0
26/04:30pm 13.7 9.7 6.8 63 3.4 NW 17 24 9 13 1015.0 1015.1 0.0
26/04:00pm 13.7 9.7 6.8 63 3.3 WNW 17 24 9 13 1015.2 1015.3 0.0
26/03:30pm 14.3 8.8 5.9 57 4.0 WNW 24 33 13 18 1015.3 1015.4 0.0
26/03:00pm 14.4 9.8 5.7 56 4.1 WNW 19 30 10 16 1015.6 1015.7 0.0
26/02:30pm 14.8 8.3 4.8 51 4.7 WNW 28 39 15 21 1015.8 1016.0 0.0
26/02:00pm 14.0 8.4 5.6 57 4.0 WNW 24 33 13 18 1016.2 1016.4 0.0
26/01:30pm 13.5 8.8 5.9 60 3.6 WNW 20 33 11 18 1016.9 1017.0 0.0
26/01:00pm 13.3 8.0 5.0 57 3.9 NW 22 35 12 19 1017.2 1017.3 0.0
26/12:30pm 14.1 9.8 6.9 62 3.5 NNW 19 26 10 14 1017.6 1017.7 0.0
26/12:00pm 13.6 9.2 6.5 62 3.4 NW 19 24 10 13 1018.2 1018.3 0.0
26/11:30am 13.8 9.9 6.9 63 3.4 NW 17 22 9 12 1018.8 1018.9 0.0
26/11:00am 13.3 9.8 8.6 73 2.4 NNW 17 22 9 12 1019.1 1019.2 0.0
26/10:30am 12.3 10.0 9.0 80 1.7 WNW 11 17 6 9 1019.5 1019.6 0.0
26/10:00am 11.8 10.2 8.6 81 1.6 NW 7 11 4 6 1019.7 1019.8 0.0
26/09:30am 11.2 8.4 8.6 84 1.3 WNW 13 15 7 8 1019.5 1019.6 0.0
26/09:00am 9.4 7.2 7.7 89 0.8 NW 9 11 5 6 1019.4 1019.5 0.0
26/08:30am 7.7 4.9 7.0 95 0.3 NNW 11 13 6 7 1019.2 1019.3 0.0
26/08:00am 6.0 3.0 5.9 99 0.0 N 11 15 6 8 1018.9 1019.0 0.0
26/07:30am 5.0 1.4 4.9 99 0.0 N 13 17 7 9 1018.7 1018.8 0.0
26/07:00am 4.9 1.6 4.6 98 0.1 NNW 11 13 6 7 1018.3 1018.4 0.0
26/06:30am 5.3 2.4 4.7 96 0.3 N 9 13 5 7 1018.1 1018.2 0.0
26/06:00am 5.6 2.7 4.9 95 0.3 N 9 11 5 6 1017.9 1018.0 0.0
26/05:30am 6.7 4.0 5.5 92 0.5 NW 9 11 5 6 1017.7 1017.8 0.0
26/05:00am 7.7 5.5 6.3 91 0.6 W 7 9 4 5 1017.4 1017.5 0.0
26/04:30am 8.2 6.1 6.7 90 0.7 W 7 11 4 6 1017.3 1017.4 0.0
26/04:00am 8.5 5.9 6.3 86 1.0 W 9 15 5 8 1017.4 1017.5 0.0
26/03:30am 8.8 6.1 5.7 81 1.4 WNW 9 15 5 8 1017.4 1017.5 0.0
26/03:00am 9.1 5.7 5.7 79 1.6 W 13 20 7 11 1017.7 1017.8 0.0
26/02:30am 7.4 4.5 4.7 83 1.2 WNW 9 13 5 7 1017.5 1017.6 0.0
26/02:00am 8.1 4.5 4.9 80 1.4 NW 13 15 7 8 1017.3 1017.4 0.0
26/01:30am 9.1 4.8 5.1 76 1.8 NW 17 20 9 11 1017.1 1017.2 0.0
26/01:00am 9.2 4.3 5.0 75 1.9 NW 20 30 11 16 1016.9 1017.0 0.0
26/12:30am 8.2 3.8 4.6 78 1.6 NW 17 24 9 13 1017.2 1017.3 0.0
26/12:00am 8.4 3.6 4.6 77 1.7 NW 19 22 10 12 1017.1 1017.2 0.0
 
Date/Time
EST
Temp
°C
App
Temp
°C
Dew
Point
°C
Rel
Hum
%
Delta-T
°C
Wind Press
QNH
hPa
Press
MSL
hPa
Rain since
9am
mm
Dir  Spd
km/h
Gust
km/h
Spd
kts
Gust
kts
25/11:30pm 8.4 3.6 4.4 76 1.8 NW 19 26 10 14 1017.0 1017.1 0.0
25/11:00pm 8.5 4.1 4.5 76 1.8 NNW 17 24 9 13 1016.8 1016.9 0.0
25/10:30pm 8.4 4.3 4.4 76 1.8 NNW 15 20 8 11 1016.7 1016.8 0.0
25/10:00pm 8.8 4.7 4.4 74 1.9 NNW 15 20 8 11 1016.8 1016.9 0.0
25/09:30pm 9.3 4.9 4.5 72 2.1 NNW 17 20 9 11 1016.8 1016.9 0.0
25/09:00pm 9.4 5.4 4.8 73 2.1 NNW 15 20 8 11 1016.9 1017.0 0.0
25/08:30pm 9.4 5.0 4.8 73 2.1 NW 17 20 9 11 1017.1 1017.2 0.0
25/08:00pm 9.3 5.3 4.9 74 2.0 NW 15 20 8 11 1017.2 1017.3 0.0
25/07:30pm 9.2 5.6 4.8 74 2.0 NW 13 17 7 9 1016.9 1017.0 0.0
25/07:00pm 9.5 5.8 4.7 72 2.1 NW 13 15 7 8 1016.5 1016.6 0.0
25/06:30pm 10.4 6.8 4.8 68 2.5 NNW 13 19 7 10 1015.9 1016.1 0.0
25/06:00pm 10.8 7.1 4.7 66 2.8 NNW 13 17 7 9 1015.7 1015.8 0.0
25/05:30pm 12.2 7.2 4.4 59 3.6 NW 20 30 11 16 1015.7 1015.8 0.0
25/05:00pm 13.0 8.1 4.9 58 3.8 NNW 20 30 11 16 1015.5 1015.6 0.0
25/04:30pm 13.6 8.0 5.5 58 3.8 NW 24 33 13 18 1015.6 1015.7 0.0
25/04:00pm 13.9 8.7 5.3 56 4.0 NNW 22 32 12 17 1015.8 1016.0 0.0
25/03:30pm 14.2 9.1 6.1 58 3.9 WNW 22 30 12 16 1016.1 1016.3 0.0
25/03:00pm 14.1 8.5 5.5 56 4.1 NNW 24 33 13 18 1015.9 1016.1 0.0
25/02:30pm 14.2 9.2 6.6 60 3.7 NW 22 35 12 19 1016.3 1016.5 0.0
25/02:00pm 13.6 8.2 6.5 62 3.4 NW 24 33 13 18 1016.8 1016.9 0.0
25/01:30pm 13.6 9.1 6.9 64 3.3 WNW 20 30 11 16 1017.2 1017.3 0.0
25/01:00pm 13.9 9.7 7.4 65 3.2 WNW 19 28 10 15 1017.3 1017.4 0.0
25/12:30pm 13.5 9.4 7.7 68 2.9 WNW 19 28 10 15 1017.6 1017.7 0.0
25/12:00pm 13.5 9.4 7.7 68 2.9 WNW 19 26 10 14 1018.2 1018.3 0.0
25/11:30am 12.5 8.2 6.8 68 2.7 WNW 19 26 10 14 1018.4 1018.5 0.0
25/11:00am 12.1 7.7 6.6 69 2.6 W 19 28 10 15 1018.5 1018.6 0.0
25/10:30am 11.3 6.8 6.0 70 2.5 W 19 24 10 13 1018.7 1018.8 0.0
25/10:00am 10.6 5.5 6.0 73 2.1 WNW 22 32 12 17 1018.6 1018.7 0.0
25/09:30am 9.8 5.0 5.4 74 2.0 W 20 32 11 17 1018.3 1018.4 0.0
25/09:00am 8.5 3.5 4.7 77 1.7 WNW 20 32 11 17 1017.9 1018.0 0.0
25/08:30am 7.4 2.6 4.4 81 1.3 WNW 19 28 10 15 1017.6 1017.7 0.0
25/08:00am 6.1 1.5 3.8 85 1.0 NW 17 22 9 12 1017.3 1017.4 0.0
25/07:30am 5.3 0.7 3.5 88 0.8 NW 17 20 9 11 1016.9 1017.0 0.0
25/07:00am 5.4 0.7 3.4 87 0.8 NW 17 20 9 11 1016.5 1016.6 0.0
25/06:30am 5.7 0.7 3.4 85 1.0 NW 19 24 10 13 1016.1 1016.3 0.0
25/06:00am 6.1 1.5 3.6 84 1.1 NW 17 20 9 11 1015.7 1015.8 0.0
25/05:30am 6.3 1.3 3.5 82 1.2 NW 19 26 10 14 1015.4 1015.5 0.0
25/05:00am 6.6 1.6 3.6 81 1.3 WNW 19 24 10 13 1015.1 1015.2 0.0
25/04:30am 7.0 1.8 3.6 79 1.5 WNW 20 30 11 16 1015.0 1015.1 0.0
25/04:00am 7.5 1.9 3.6 76 1.7 WNW 22 35 12 19 1014.6 1014.7 0.0
25/03:30am 7.7 2.5 3.7 76 1.7 WNW 20 30 11 16 1014.6 1014.7 0.0
25/03:00am 7.7 2.5 3.7 76 1.7 WNW 20 28 11 15 1014.4 1014.5 0.0
25/02:30am 8.1 2.9 3.8 74 1.9 WNW 20 28 11 15 1014.5 1014.6 0.0
25/02:00am 7.9 2.9 3.6 74 1.9 WNW 19 26 10 14 1014.5 1014.6 0.0
25/01:30am 8.0 2.8 3.7 74 1.9 WNW 20 26 11 14 1014.3 1014.4 0.0
25/01:00am 7.8 2.6 3.5 74 1.8 NW 20 26 11 14 1014.5 1014.6 0.0
25/12:30am 7.9 2.9 3.4 73 1.9 NW 19 22 10 12 1014.5 1014.6 0.0
25/12:00am 8.2 3.2 3.5 72 2.0 NW 19 26 10 14 1014.5 1014.6 0.0
 
Date/Time
EST
Temp
°C
App
Temp
°C
Dew
Point
°C
Rel
Hum
%
Delta-T
°C
Wind Press
QNH
hPa
Press
MSL
hPa
Rain since
9am
mm
Dir  Spd
km/h
Gust
km/h
Spd
kts
Gust
kts
24/11:30pm 8.3 3.3 3.4 71 2.1 NW 19 26 10 14 1014.5 1014.6 0.0
24/11:00pm 8.3 3.6 3.4 71 2.1 NW 17 20 9 11 1014.3 1014.4 0.0
24/10:30pm 9.0 4.3 3.4 68 2.4 NW 17 20 9 11 1014.0 1014.1 0.0
24/10:00pm 9.3 4.7 3.9 69 2.4 WNW 17 22 9 12 1014.0 1014.1 0.0
24/09:30pm 9.9 5.1 4.5 69 2.4 WNW 19 26 10 14 1014.0 1014.1 0.0
24/09:00pm 9.7 5.4 5.1 73 2.1 NW 17 22 9 12 1013.8 1013.9 0.0
24/08:30pm 9.1 5.2 5.3 77 1.7 WNW 15 19 8 10 1013.5 1013.6 0.0
24/08:00pm 9.7 5.8 5.3 74 2.0 NW 15 19 8 10 1013.1 1013.2 0.0
24/07:30pm 10.5 6.2 5.3 70 2.4 WNW 17 24 9 13 1012.7 1012.8 0.0
24/07:00pm 11.3 6.6 5.2 66 2.8 NW 19 26 10 14 1012.1 1012.2 0.0
24/06:30pm 12.1 6.9 5.3 63 3.2 WNW 22 35 12 19 1011.5 1011.6 0.0
24/06:00pm 12.3 7.2 5.9 65 3.0 WNW 22 35 12 19 1011.2 1011.3 0.0
24/05:30pm 13.2 7.5 4.9 57 3.9 NW 24 35 13 19 1010.6 1010.7 0.0
24/05:00pm 14.0 7.6 5.4 56 4.1 NW 28 41 15 22 1010.6 1010.7 0.0
24/04:42pm 14.2 7.3 4.5 52 4.5 NW 30 56 16 30 1010.3 1010.4 0.0
24/04:30pm 14.4 8.1 5.7 56 4.2 NW 28 39 15 21 1010.5 1010.6 0.0
24/04:00pm 13.4 8.8 6.7 64 3.2 NNW 20 37 11 20 1010.6 1010.7 0.0
24/03:30pm 13.5 8.6 6.8 64 3.2 NNW 22 32 12 17 1010.6 1010.7 0.0
24/03:00pm 13.0 6.4 7.7 70 2.6 WNW 32 41 17 22 1011.0 1011.1 0.0
24/02:42pm 14.0 7.3 5.4 56 4.1 NW 30 48 16 26 1010.8 1010.9 0.0
24/02:30pm 14.0 8.4 5.4 56 4.1 NNW 24 39 13 21 1010.8 1010.9 0.0
24/02:00pm 14.0 7.7 5.9 58 3.9 NNW 28 37 15 20 1011.3 1011.4 0.0
24/01:30pm 13.9 9.5 7.2 64 3.3 NW 20 28 11 15 1011.7 1011.8 0.0
24/01:00pm 13.4 8.6 7.2 66 3.0 NNW 22 30 12 16 1012.3 1012.4 0.0
24/12:30pm 13.5 8.7 7.5 67 3.0 NNW 22 33 12 18 1012.8 1012.9 0.0
24/12:00pm 13.1 8.7 7.3 68 2.8 NNW 20 30 11 16 1013.4 1013.5 0.0
24/11:30am 12.6 8.6 8.3 75 2.1 NNW 19 26 10 14 1014.1 1014.2 0.0
24/11:00am 11.5 7.3 7.6 77 1.9 NNW 19 24 10 13 1014.4 1014.5 0.0
24/10:30am 11.2 7.1 7.9 80 1.6 NNW 19 24 10 13 1014.7 1014.8 0.0
24/10:00am 10.3 6.5 7.5 83 1.3 NNW 17 24 9 13 1015.1 1015.2 0.0
24/09:30am 9.9 6.5 7.7 86 1.1 N 15 20 8 11 1014.8 1014.9 0.0
24/09:00am 8.9 6.0 8.0 94 0.4 N 13 17 7 9 1014.7 1014.8 0.2
24/08:30am 8.3 5.4 8.2 99 0.0 NNE 13 17 7 9 1014.6 1014.7 0.2
24/08:00am 7.4 4.7 7.3 99 0.0 NE 11 13 6 7 1014.7 1014.8 0.2
24/07:30am 6.8 4.3 6.7 99 0.0 NE 9 11 5 6 1014.7 1014.8 0.2
24/07:00am 6.5 4.3 6.4 99 0.0 ENE 7 9 4 5 1014.6 1014.7 0.2
24/06:30am 7.0 5.0 6.9 99 0.0 NE 7 7 4 4 1014.9 1015.0 0.2
24/06:00am 7.2 5.8 7.1 99 0.0 N 4 9 2 5 1014.7 1014.8 0.0
24/05:30am 7.2 5.2 7.1 99 0.0 N 7 9 4 5 1014.7 1014.8 0.0
24/05:00am 6.9 5.8 6.8 99 0.0 S 2 7 1 4 1014.5 1014.6 0.0
24/04:30am 6.9 5.0 6.8 99 0.0 NW 6 7 3 4 1014.7 1014.8 0.0
24/04:00am 6.7 4.5 6.4 98 0.1 NW 7 9 4 5 1014.7 1014.8 0.0
24/03:30am 6.1 3.0 5.7 97 0.2 N 11 13 6 7 1014.8 1014.9 0.0
24/03:00am 6.4 3.8 6.0 97 0.2 N 9 15 5 8 1015.2 1015.3 0.0
24/02:30am 6.0 3.5 4.8 92 0.5 N 7 9 4 5 1015.0 1015.1 0.0
24/02:00am 6.7 4.5 6.3 97 0.2 N 7 11 4 6 1015.2 1015.3 0.0
24/01:30am 5.8 3.0 5.1 95 0.3 N 9 11 5 6 1015.5 1015.6 0.0
24/01:00am 6.1 3.8 5.5 96 0.3 NNW 7 9 4 5 1015.9 1016.1 0.0
24/12:30am 5.7 3.4 4.7 93 0.4 NNW 6 7 3 4 1015.8 1016.0 0.0
24/12:00am 6.2 3.7 5.0 92 0.5 NNW 7 9 4 5 1016.1 1016.3 0.0
 
Date/Time
EST
Temp
°C
App
Temp
°C
Dew
Point
°C
Rel
Hum
%
Delta-T
°C
Wind Press
QNH
hPa
Press
MSL
hPa
Rain since
9am
mm
Dir  Spd
km/h
Gust
km/h
Spd
kts
Gust
kts
23/11:30pm 6.3 4.0 4.9 91 0.6 NNW 6 9 3 5 1016.5 1016.6 0.0
23/11:00pm 6.9 4.5 5.2 89 0.8 NNW 7 9 4 5 1016.9 1017.0 0.0
23/10:30pm 7.3 4.9 5.3 87 0.9 NNW 7 9 4 5 1016.8 1016.9 0.0
23/10:00pm 7.4 4.7 5.4 87 0.9 NNW 9 11 5 6 1016.6 1016.7 0.0
23/09:30pm 7.5 4.7 5.3 86 1.0 NW 9 11 5 6 1016.6 1016.7 0.0
23/09:00pm 7.6 4.9 5.4 86 1.0 NNW 9 11 5 6 1016.5 1016.6 0.0
23/08:30pm 7.3 4.4 4.6 83 1.2 NW 9 11 5 6 1016.6 1016.7 0.0

Other Formats:

Comma delimited format used in spreadsheet applications
http://www.bom.gov.au/fwo/IDN60801/IDN60801.95697.axf

JavaScript Object Notation format (JSON) in row-major order
http://www.bom.gov.au/fwo/IDN60801/IDN60801.95697.json